Relevés horaires St-Hubert (Belgique)


Relevés horaires à St-Hubert - Mardi 24 Avr. 2018
Heure UTC1 Température [°C] Vent [km/h] Hum. [%] Pres.4 [hPa] Visi. [Km] Nébu. [octa] Préc.5 [mm] Cond.
2m. Res. Ros. Dir.2 Vit. Moy. Raf.3
23:00 9.7 9.2 6.4 SO 5.6 7.4 11.1 80 1013.4(-1.5/3h) 40 0/8 -- --
22:00 9.9 9.5 6.1 SO 5.6 7.4 14.8 77 1014(-1.0/3h) 40 0/8 -- --
21:00 10.7 10 6.2 SSO 7.4 7.4 13.0 74 1014.3(-1.1/3h) 45 0/8 -- --
20:00 11.3 10.7 6.1 SSO 7.4 7.4 13.0 70 1014.6(-1.2/3h) 45 0/8 -- --
19:00 11.8 11.6 7.6 SSO 5.6 7.4 11.1 75 1014.7(-1.3/3h) 45 0/8 -- --
18:00 13.2 13.2 8.0 SO 5.6 11.1 16.7 71 1014.9(-1.2/3h) 35 4/8 0/12h
--
17:00 13.7 13.5 7.9 SO 7.4 9.3 14.8 68 1015.3(-1.3/3h) 40 1/8 -- --
16:00 14.2 14 7.9 SO 7.4 9.3 16.7 66 1015.5(-1.6/3h) 27 0/8 -- --
15:00 14.5 14.1 7.5 OSO 9.3 11.1 16.7 63 1015.9(-1.7/3h) 35 0/8 -- --
14:00 14.9 14.9 7.3 NNO 0.0 9.3 16.7 60 1016.5(-1.3/3h) 29 0/8 -- --
13:00 15.1 14.8 7.5 OSO 9.3 9.3 16.7 60 1017(-1.3/3h) 30 0/8 -- --
12:00 13.8 13.6 6.1 SO 7.4 9.3 14.8 60 1017.8(-0.6/3h) 27 1/8 0/6h
Ciel clair
11:00 13.0 12.6 5.6 SO 7.4 7.4 13.0 61 1018.4(0.0/3h) 35 0/8 -- --
10:00 11.4 10.8 4.9 O 7.4 7.4 13.0 64 1019.3(0.5/3h) 35 0/8 -- --
09:00 9.6 9.6 5.9 NNO 0.0 0.0 0.0 78 1019.4(0.7/3h) -- -- -- --
08:00 7.3 7.3 5.3 NNO 0.0 0.0 0.0 87 1019.8(0.7/3h) -- -- -- --
07:00 6.1 6.1 4.7 NNO 0.0 0.0 0.0 91 1020(0.8/3h) -- -- -- --
06:00 4.9 4.9 4.0 NNO 0.0 0.0 0.0 94 1019.9(-0.1/3h) -- -- 0/12h
--
05:00 4.4 4.4 3.5 NNO 0.0 0.0 0.0 94 1019.8(-0.3/3h) -- -- -- --
04:00 4.4 4.4 3.4 NNO 0.0 0.0 0.0 93 1019.6(-0.7/3h) -- -- -- --
03:00 4.4 4.4 3.2 NNO 0.0 0.0 0.0 92 1019.9(-0.8/3h) -- -- -- --
02:00 4.4 4.4 3.5 NNO 0.0 0.0 0.0 94 1020.1(-0.6/3h) -- -- -- --
01:00 4.9 4.9 3.7 NNO 0.0 0.0 0.0 92 1020.3(-0.3/3h) -- -- -- --
00:00 6.4 6.4 4.8 NNO 0.0 0.0 0.0 89 1020.2(0.1/3h) -- -- 0/6h
0/24h
--

1 Coordinated Universal Time. Actuellement il est 12:00 locale et 10:00 UTC.

2 Le vent souffle depuis la direction indiquée vers la direction oposée.

3 Les rafales max. sont disponible 40 min après l'heure du relevé.

4 Pour les stations d'altitude (plus de 600m) le géopotentiel du niveau le plus proche de la pression obligatoire est indiqué.

5 Les stations disposant d'un diffuseur peuvent indiquer "trace". Cela signifie que des précipitations ont touchés le sol mais que la quantité est inférieure à 0.1 mm.

Récapitulatif de la journée
Température [°C] Vent [km/h] Ensoleillement4 [h] Precipitations totale5 [mm] Pression [Hpa]
Min1 Max.2 Moy.3 Max. Min Max.
4.2 15.9 5 16.7 0 h 0 min 0 1013.4 1020.3

1 Température minimale relevée entre 18:00 UTC la veille et 18:00 UTC le jour donné.

2 Température maximale relevée entre 06:00 UTC le jour donné et 06:00 UTC le lendemain.

3 Vent moyen de la journée basé sur les relevés horaires.

4 Ensoleillement en heures relevé entre 06:00 UTC la veille et 06:00 UTC le jour donné.

5 Précipitations totales tombées entre 06:00 UTC la jour donné et 06:00 UTC le lendemain.

Graphiques horaires